Time;durP1;ratioP1;P1;durP2;ratioP2;P2;SDS_P1;SDS_P2;PMS_P1;PMS_P2;Temp;Humidity;BMP_temperature;BMP_pressure;BME280_temperature;BME280_humidity;BME280_pressure;Samples;Min_cycle;Max_cycle;Signal;HPM_P1;HPM_P2
2022/09/21 00:02:24;;;;;;;7.43;4.10;;;;;;;9.65;88.24;102526.22;4996821;28;20109;-72
2022/09/21 00:04:49;;;;;;;5.28;3.72;;;;;;;9.59;88.55;102527.38;5009814;28;20065;-72
2022/09/21 00:07:15;;;;;;;8.18;3.90;;;;;;;9.51;87.81;102531.34;4995429;28;20034;-72
2022/09/21 00:09:41;;;;;;;6.85;3.55;;;;;;;9.48;87.66;102532.38;4995317;28;20046;-72
2022/09/21 00:12:06;;;;;;;9.38;4.20;;;;;;;9.43;87.72;102520.81;4995393;28;20444;-72
2022/09/21 00:14:31;;;;;;;10.98;4.32;;;;;;;9.38;88.14;102528.28;4995007;28;20549;-72
2022/09/21 00:16:57;;;;;;;6.20;4.00;;;;;;;9.33;88.16;102524.84;4994154;28;20033;-72
2022/09/21 00:19:22;;;;;;;9.38;4.32;;;;;;;9.33;87.91;102527.56;5010188;28;20092;-72
2022/09/21 00:21:47;;;;;;;6.13;3.97;;;;;;;9.29;88.67;102531.34;4996302;28;20057;-72
2022/09/21 00:24:13;;;;;;;8.40;4.10;;;;;;;9.26;88.34;102529.63;5008340;28;20030;-73
2022/09/21 00:26:38;;;;;;;7.05;4.15;;;;;;;9.24;88.41;102528.81;4997702;28;20073;-72
2022/09/21 00:29:03;;;;;;;8.75;4.38;;;;;;;9.19;89.10;102525.41;5006485;28;20022;-72
2022/09/21 00:31:30;;;;;;;8.80;4.20;;;;;;;9.15;88.52;102519.19;5006188;28;20041;-72
2022/09/21 00:33:58;;;;;;;8.63;3.97;;;;;;;9.13;88.79;102533.78;4991763;28;20030;-72
2022/09/21 00:36:25;;;;;;;6.78;4.47;;;;;;;9.11;88.65;102527.53;5007088;28;20038;-72
2022/09/21 00:38:53;;;;;;;5.50;3.88;;;;;;;9.09;88.30;102532.13;4992556;28;20110;-72
2022/09/21 00:41:18;;;;;;;9.93;4.45;;;;;;;9.10;88.43;102532.06;4991138;28;20879;-72
2022/09/21 00:44:08;;;;;;;8.95;4.18;;;;;;;9.13;88.47;102531.06;4990386;28;20029;-72
2022/09/21 00:46:38;;;;;;;7.97;4.22;;;;;;;9.13;88.46;102533.78;5000140;28;20370;-72
2022/09/21 00:49:03;;;;;;;5.00;3.90;;;;;;;9.12;88.51;102530.19;4991968;28;20397;-72
2022/09/21 00:51:28;;;;;;;7.10;4.43;;;;;;;9.09;88.32;102524.88;5004482;28;20030;-72
2022/09/21 00:54:01;;;;;;;17.85;4.65;;;;;;;9.13;88.26;102533.78;5006937;28;20176;-72
2022/09/21 00:56:27;;;;;;;;;;;;;;;9.19;87.10;102537.16;5010837;28;20053;-72
2022/09/21 00:58:53;;;;;;;8.27;3.63;;;;;;;9.12;88.26;102535.59;5011184;28;20360;-72
2022/09/21 01:01:19;;;;;;;6.78;3.28;;;;;;;9.11;87.83;102532.97;4992837;28;20042;-72
2022/09/21 01:03:46;;;;;;;7.60;3.78;;;;;;;9.08;88.07;102535.78;5001024;28;20379;-72
2022/09/21 01:06:13;;;;;;;6.10;4.60;;;;;;;9.05;88.15;102528.66;5005323;28;20061;-72
2022/09/21 01:08:40;;;;;;;7.78;3.55;;;;;;;9.05;88.43;102534.09;4991713;28;20035;-72
2022/09/21 01:11:33;;;;;;;6.90;4.70;;;;;;;9.06;88.06;102532.25;4991523;28;20042;-71
2022/09/21 01:14:16;;;;;;;7.18;4.03;;;;;;;9.02;88.62;102531.50;5006231;28;20042;-71
2022/09/21 01:17:03;;;;;;;8.25;3.83;;;;;;;9.00;88.54;102530.69;4991257;28;20485;-72
2022/09/21 01:19:46;;;;;;;8.55;4.28;;;;;;;8.99;88.36;102534.31;4991185;28;20065;-72
2022/09/21 01:22:30;;;;;;;7.70;4.30;;;;;;;8.98;88.30;102532.53;4991355;28;20486;-72
2022/09/21 01:25:34;;;;;;;7.50;4.00;;;;;;;8.98;88.02;102534.38;5006440;28;20068;-72
2022/09/21 01:28:23;;;;;;;9.75;4.35;;;;;;;8.94;89.31;102537.19;5007736;28;20559;-72
2022/09/21 01:30:52;;;;;;;6.43;3.95;;;;;;;8.90;88.66;102538.25;5005468;28;20030;-72
2022/09/21 01:33:31;;;;;;;8.43;4.18;;;;;;;8.91;89.15;102539.16;4997100;28;20046;-72
2022/09/21 01:36:05;;;;;;;13.05;4.72;;;;;;;8.89;89.08;102536.50;4989940;28;20089;-71
2022/09/21 01:38:45;;;;;;;9.85;4.35;;;;;;;8.87;89.55;102530.25;4991112;28;20046;-71
2022/09/21 01:41:17;;;;;;;8.75;4.32;;;;;;;8.83;89.87;102525.88;4991028;28;20049;-71
2022/09/21 01:43:49;;;;;;;9.90;3.70;;;;;;;8.78;89.57;102527.00;4990794;28;20456;-71
2022/09/21 01:46:19;;;;;;;5.65;4.22;;;;;;;8.78;89.46;102527.88;5005701;28;20497;-71
2022/09/21 01:48:50;;;;;;;9.38;4.30;;;;;;;8.80;89.34;102525.09;4990523;28;20038;-71
2022/09/21 01:51:20;;;;;;;10.43;4.28;;;;;;;8.79;89.17;102526.06;4990732;28;20045;-71
2022/09/21 01:53:54;;;;;;;11.32;4.32;;;;;;;8.77;89.40;102531.56;5005725;28;20069;-71
2022/09/21 01:56:31;;;;;;;11.85;4.32;;;;;;;8.75;89.24;102522.56;4993207;28;20042;-71
2022/09/21 01:59:13;;;;;;;7.78;3.95;;;;;;;8.77;88.76;102528.84;5010189;28;20053;-71
2022/09/21 02:01:44;;;;;;;6.57;4.07;;;;;;;8.76;89.11;102532.47;4995105;28;20062;-71
2022/09/21 02:04:12;;;;;;;9.13;3.85;;;;;;;8.75;89.02;102537.97;4990808;28;20136;-72
2022/09/21 02:06:42;;;;;;;10.23;3.83;;;;;;;8.71;89.35;102534.47;5005249;28;20434;-72
2022/09/21 02:09:09;;;;;;;7.50;4.05;;;;;;;8.69;89.04;102530.94;5005544;28;20050;-71
2022/09/21 02:11:41;;;;;;;5.97;3.58;;;;;;;8.68;89.71;102526.47;4990498;28;20033;-71
2022/09/21 02:14:12;;;;;;;9.38;3.92;;;;;;;8.67;89.77;102528.31;5009781;28;20046;-72
2022/09/21 02:17:14;;;;;;;9.07;3.88;;;;;;;8.66;89.40;102531.06;5008805;28;20037;-72
2022/09/21 02:20:01;;;;;;;8.90;3.63;;;;;;;8.61;89.71;102520.38;4990534;28;20481;-71
2022/09/21 02:23:05;;;;;;;6.45;3.58;;;;;;;8.58;89.08;102525.94;4990358;28;20482;-71
2022/09/21 02:25:35;;;;;;;9.32;3.90;;;;;;;8.55;89.18;102522.44;4989940;28;20048;-72
2022/09/21 02:28:11;;;;;;;7.95;3.85;;;;;;;8.51;89.53;102531.63;5006749;28;20229;-71
2022/09/21 02:30:39;;;;;;;8.02;3.80;;;;;;;8.46;89.29;102528.22;5003077;28;20034;-72
2022/09/21 02:33:19;;;;;;;6.47;3.75;;;;;;;8.43;89.66;102531.91;5014946;28;20038;-71
2022/09/21 02:35:50;;;;;;;8.45;4.35;;;;;;;8.41;89.17;102528.38;5004986;28;20334;-72
2022/09/21 02:38:36;;;;;;;10.50;3.80;;;;;;;8.36;89.66;102525.81;5004929;28;20045;-71
2022/09/21 02:41:24;;;;;;;4.93;3.50;;;;;;;8.32;90.28;102526.84;4990122;28;20052;-72
2022/09/21 02:44:04;;;;;;;9.48;4.03;;;;;;;8.28;90.04;102524.28;4990031;28;20053;-72
2022/09/21 02:46:48;;;;;;;4.32;3.28;;;;;;;8.19;90.05;102526.38;4989773;28;20046;-72
2022/09/21 02:49:20;;;;;;;5.50;3.28;;;;;;;8.15;89.64;102526.53;4999838;28;20045;-72
2022/09/21 02:51:50;;;;;;;5.47;3.70;;;;;;;8.06;89.98;102522.34;4989670;28;20490;-72
2022/09/21 02:54:21;;;;;;;5.60;3.50;;;;;;;8.05;89.18;102526.00;4989440;28;20038;-72
2022/09/21 02:56:47;;;;;;;4.72;3.22;;;;;;;8.03;89.23;102529.72;4996388;28;20061;-72
2022/09/21 02:59:15;;;;;;;6.97;4.03;;;;;;;8.00;89.08;102530.69;5024351;28;20123;-72
2022/09/21 03:01:41;;;;;;;4.93;3.20;;;;;;;7.97;89.04;102522.66;4994192;28;20134;-72
2022/09/21 03:04:07;;;;;;;7.35;3.38;;;;;;;7.93;89.77;102519.19;5002337;28;20060;-72
2022/09/21 03:06:32;;;;;;;8.70;3.70;;;;;;;7.92;90.79;102520.09;4989438;28;20561;-71
2022/09/21 03:08:58;;;;;;;5.28;2.78;;;;;;;7.88;90.50;102523.88;5004399;28;20080;-72
2022/09/21 03:11:24;;;;;;;11.15;3.53;;;;;;;7.85;90.15;102528.50;4989417;28;20115;-71
2022/09/21 03:13:49;;;;;;;6.05;3.08;;;;;;;7.80;90.14;102534.09;4989952;28;20376;-72
2022/09/21 03:16:15;;;;;;;4.82;3.17;;;;;;;7.76;89.82;102529.72;4989115;28;20096;-72
2022/09/21 03:18:43;;;;;;;8.85;3.15;;;;;;;7.72;89.43;102529.84;5004204;28;20039;-72
2022/09/21 03:21:11;;;;;;;8.70;2.78;;;;;;;7.68;89.55;102534.47;5004426;28;20478;-72
2022/09/21 03:23:37;;;;;;;9.65;3.45;;;;;;;7.64;89.96;102536.41;4988011;28;20117;-72
2022/09/21 03:26:04;;;;;;;4.13;2.95;;;;;;;7.62;89.41;102535.56;4990157;28;20046;-72
2022/09/21 03:28:29;;;;;;;3.88;2.95;;;;;;;7.61;89.96;102535.63;4988096;28;20053;-72
2022/09/21 03:30:54;;;;;;;6.68;3.67;;;;;;;7.59;89.44;102535.66;4989130;28;20458;-72
2022/09/21 03:33:20;;;;;;;7.70;3.90;;;;;;;7.58;89.58;102542.03;4989456;28;20043;-72
2022/09/21 03:35:49;;;;;;;5.65;3.22;;;;;;;7.52;89.44;102534.13;4989231;28;20038;-71
2022/09/21 03:38:15;;;;;;;10.23;3.05;;;;;;;7.50;89.81;102541.38;4989363;28;20108;-71
2022/09/21 03:40:45;;;;;;;8.32;3.22;;;;;;;7.48;89.75;102537.84;4989355;28;20042;-72
2022/09/21 03:43:10;;;;;;;5.00;3.20;;;;;;;7.47;89.97;102541.50;4988162;28;20101;-72
2022/09/21 03:45:36;;;;;;;4.10;3.30;;;;;;;7.44;89.65;102540.72;5004109;28;20548;-71
2022/09/21 03:48:03;;;;;;;5.80;3.40;;;;;;;7.41;89.49;102547.09;5004100;28;20082;-71
2022/09/21 03:50:28;;;;;;;5.95;3.50;;;;;;;7.39;89.66;102551.69;5001986;28;20042;-72
2022/09/21 03:52:55;;;;;;;5.47;3.22;;;;;;;7.35;89.42;102550.00;5004317;28;20072;-71
2022/09/21 03:55:21;;;;;;;6.25;3.42;;;;;;;7.33;89.64;102543.78;4989288;28;20034;-72
2022/09/21 03:57:47;;;;;;;7.90;3.33;;;;;;;7.29;89.68;102539.38;5018980;28;20084;-72
2022/09/21 04:00:13;;;;;;;6.43;2.67;;;;;;;7.26;89.95;102553.88;5007657;28;21009;-71
2022/09/21 04:02:42;;;;;;;6.43;3.13;;;;;;;7.23;89.57;102551.28;4992758;28;20394;-72
2022/09/21 04:05:09;;;;;;;4.15;2.85;;;;;;;7.21;90.02;102552.25;4992365;28;20046;-71
2022/09/21 04:07:35;;;;;;;6.93;3.35;;;;;;;7.18;89.42;102553.25;4992756;28;20127;-72
2022/09/21 04:10:05;;;;;;;4.45;3.00;;;;;;;7.13;89.96;102550.69;5007714;28;20041;-72
2022/09/21 04:12:33;;;;;;;4.93;2.75;;;;;;;7.11;89.32;102546.25;5007602;28;20034;-71
2022/09/21 04:14:59;;;;;;;9.20;3.30;;;;;;;7.08;89.81;102549.91;4992233;28;20133;-71
2022/09/21 04:17:24;;;;;;;5.45;2.75;;;;;;;7.05;89.59;102547.34;5007381;28;20046;-71
2022/09/21 04:19:49;;;;;;;4.82;3.47;;;;;;;7.04;89.33;102547.34;4993115;28;20034;-72
2022/09/21 04:22:15;;;;;;;5.82;3.50;;;;;;;6.99;89.40;102542.09;4992361;28;20048;-72
2022/09/21 04:24:41;;;;;;;5.00;3.15;;;;;;;6.98;89.55;102551.13;4992351;28;20421;-72
2022/09/21 04:27:10;;;;;;;4.72;3.17;;;;;;;6.97;89.69;102553.91;5016496;28;20046;-72
2022/09/21 04:29:37;;;;;;;7.20;3.60;;;;;;;6.94;89.56;102552.16;5011835;28;20512;-72
2022/09/21 04:32:03;;;;;;;7.65;3.88;;;;;;;6.94;89.76;102557.56;4993933;28;20026;-72
2022/09/21 04:34:30;;;;;;;8.48;3.35;;;;;;;6.93;89.83;102554.91;4992051;28;20572;-72
2022/09/21 04:36:57;;;;;;;4.80;3.53;;;;;;;6.89;89.20;102555.00;4992060;28;20030;-71
2022/09/21 04:39:22;;;;;;;8.38;3.63;;;;;;;6.88;89.39;102560.47;4992359;28;20084;-72
2022/09/21 04:41:48;;;;;;;7.53;3.85;;;;;;;6.83;89.52;102557.00;4992447;28;20478;-72
2022/09/21 04:44:14;;;;;;;5.05;3.72;;;;;;;6.82;89.40;102555.25;5006737;28;20034;-72
2022/09/21 04:46:39;;;;;;;8.18;3.67;;;;;;;6.77;89.21;102551.78;5006889;28;20056;-72
2022/09/21 04:49:04;;;;;;;6.28;3.28;;;;;;;6.75;89.17;102557.22;5006813;28;20037;-71
2022/09/21 04:51:30;;;;;;;7.65;3.85;;;;;;;6.73;89.86;102559.09;5016068;28;20147;-71
2022/09/21 04:53:55;;;;;;;8.10;3.80;;;;;;;6.72;89.51;102559.16;5010378;28;20026;-71
2022/09/21 04:56:21;;;;;;;5.07;3.63;;;;;;;6.70;89.97;102555.59;5010723;28;20115;-71
2022/09/21 04:58:46;;;;;;;9.15;3.47;;;;;;;6.69;89.52;102570.06;5009307;28;20037;-71
2022/09/21 05:01:12;;;;;;;6.13;3.30;;;;;;;6.63;89.73;102566.59;5005502;28;20100;-71
2022/09/21 05:03:37;;;;;;;5.35;3.20;;;;;;;6.60;89.52;102565.78;5000533;28;20128;-71
2022/09/21 05:06:03;;;;;;;6.65;3.60;;;;;;;6.56;89.61;102567.69;4991523;28;20161;-71
2022/09/21 05:11:15;;;;;;;6.10;3.78;;;;;;;6.54;89.76;102574.06;4991067;28;20030;-71
2022/09/21 05:13:41;;;;;;;8.52;4.40;;;;;;;6.50;89.44;102577.78;4995625;28;20091;-71
2022/09/21 05:16:07;;;;;;;8.20;4.15;;;;;;;6.44;89.90;102569.88;5008874;28;20042;-71
2022/09/21 05:18:32;;;;;;;6.53;3.80;;;;;;;6.43;90.13;102576.16;5003624;28;20037;-71
2022/09/21 05:21:00;;;;;;;8.05;3.97;;;;;;;6.40;90.37;102571.75;5009655;28;20026;-71
2022/09/21 05:23:28;;;;;;;7.30;3.92;;;;;;;6.41;89.94;102580.75;5010677;28;20038;-71
2022/09/21 05:25:53;;;;;;;8.32;4.80;;;;;;;6.37;90.20;102578.13;5026072;28;20026;-70
2022/09/21 05:28:19;;;;;;;9.30;4.40;;;;;;;6.37;90.58;102578.13;5009966;28;20512;-71
2022/09/21 05:30:52;;;;;;;8.27;4.32;;;;;;;6.35;90.42;102579.09;5003631;28;20098;-71
2022/09/21 05:33:20;;;;;;;6.65;4.45;;;;;;;6.32;90.51;102573.78;4990706;28;20047;-71
2022/09/21 05:36:10;;;;;;;6.90;4.00;;;;;;;6.35;90.04;102588.09;5005758;28;20125;-71
2022/09/21 05:38:36;;;;;;;7.20;4.32;;;;;;;6.33;90.29;102587.22;4989752;28;20537;-71
2022/09/21 05:41:01;;;;;;;6.10;3.95;;;;;;;6.29;90.57;102585.53;4991057;28;20038;-71
2022/09/21 05:43:27;;;;;;;12.52;4.07;;;;;;;6.32;90.39;102587.28;4989522;28;20038;-71
2022/09/21 05:46:17;;;;;;;9.00;4.15;;;;;;;6.33;90.19;102586.34;4991018;28;20492;-71
2022/09/21 05:48:52;;;;;;;9.18;4.15;;;;;;;6.35;90.04;102592.63;4990562;28;20433;-71
2022/09/21 05:51:27;;;;;;;9.60;3.70;;;;;;;6.37;90.34;102591.63;4990595;28;20109;-71
2022/09/21 05:54:10;;;;;;;8.82;3.97;;;;;;;6.38;90.71;102596.09;4990973;28;20050;-71
2022/09/21 05:56:47;;;;;;;5.55;3.95;;;;;;;6.40;90.64;102590.69;4995911;28;20045;-71
2022/09/21 05:59:44;;;;;;;11.25;4.05;;;;;;;6.43;90.33;102595.97;5005267;28;20541;-71
2022/09/21 06:02:46;;;;;;;5.88;3.63;;;;;;;6.44;90.56;102597.78;4990225;28;20900;-71
2022/09/21 06:05:14;;;;;;;7.55;3.75;;;;;;;6.46;90.85;102604.03;5005259;28;20046;-71
2022/09/21 06:07:40;;;;;;;5.50;3.65;;;;;;;6.48;91.06;102599.47;4990611;28;20048;-71
2022/09/21 06:10:07;;;;;;;10.65;4.03;;;;;;;6.49;90.96;102603.94;4990215;28;20497;-71
2022/09/21 06:12:32;;;;;;;8.25;3.95;;;;;;;6.51;91.01;102607.47;4990203;28;20034;-71
2022/09/21 06:14:58;;;;;;;5.50;3.83;;;;;;;6.53;91.26;102605.63;5004996;28;20044;-71
2022/09/21 06:17:26;;;;;;;7.40;4.38;;;;;;;6.54;92.16;102609.22;4990662;28;20473;-71
2022/09/21 06:19:51;;;;;;;6.30;4.00;;;;;;;6.55;91.85;102609.19;4991153;28;20077;-71
2022/09/21 06:22:17;;;;;;;7.72;3.90;;;;;;;6.57;92.18;102612.72;4989520;28;20402;-71
2022/09/21 06:24:42;;;;;;;6.70;4.05;;;;;;;6.58;91.35;102608.22;5005023;28;20469;-71
2022/09/21 06:27:07;;;;;;;6.47;4.05;;;;;;;6.59;91.40;102612.69;5014685;28;20038;-71
2022/09/21 06:29:33;;;;;;;6.65;4.00;;;;;;;6.62;91.59;102609.88;5024641;28;20030;-71
2022/09/21 06:31:58;;;;;;;8.23;4.68;;;;;;;6.64;92.03;102614.34;4993051;28;20076;-71
2022/09/21 06:34:24;;;;;;;6.43;3.88;;;;;;;6.65;91.61;102616.09;4989863;28;20112;-71
2022/09/21 06:36:49;;;;;;;7.63;4.30;;;;;;;6.69;90.89;102610.63;4990231;28;20371;-70
2022/09/21 06:39:14;;;;;;;9.20;4.30;;;;;;;6.71;90.91;102619.56;4989787;28;20100;-71
2022/09/21 06:41:40;;;;;;;7.35;4.30;;;;;;;6.73;90.64;102612.31;4988668;28;20085;-71
2022/09/21 06:44:08;;;;;;;7.00;3.55;;;;;;;6.77;91.20;102619.41;5004747;28;20081;-71
2022/09/21 06:46:34;;;;;;;6.47;3.97;;;;;;;6.79;90.81;102622.94;4998874;28;20030;-71
2022/09/21 06:48:59;;;;;;;7.22;3.97;;;;;;;6.83;91.60;102619.22;5015091;28;20054;-71
2022/09/21 06:51:24;;;;;;;10.95;4.63;;;;;;;6.84;91.64;102613.75;4989507;28;20030;-71
2022/09/21 06:53:53;;;;;;;9.15;4.75;;;;;;;6.91;91.95;102611.78;4989958;28;20482;-71
2022/09/21 06:56:19;;;;;;;10.25;6.50;;;;;;;7.01;94.09;102609.72;5005739;28;20045;-71
2022/09/21 06:58:46;;;;;;;8.57;6.38;;;;;;;7.05;94.24;102603.28;5024062;28;20141;-71
2022/09/21 07:01:13;;;;;;;8.07;5.38;;;;;;;7.14;95.27;102613.81;5006330;28;20018;-71
2022/09/21 07:03:40;;;;;;;13.90;7.55;;;;;;;7.22;95.63;102622.59;4994449;28;20034;-71
2022/09/21 07:06:07;;;;;;;12.27;6.45;;;;;;;7.26;95.70;102617.97;4987003;28;20049;-71
2022/09/21 07:08:32;;;;;;;12.27;6.60;;;;;;;7.33;95.96;102617.75;4989609;28;20057;-71
2022/09/21 07:10:59;;;;;;;18.08;7.88;;;;;;;7.38;95.98;102617.63;4989450;28;20026;-71
2022/09/21 07:13:25;;;;;;;17.27;8.85;;;;;;;7.45;96.94;102619.19;4988720;28;20061;-71
2022/09/21 07:15:51;;;;;;;13.93;7.85;;;;;;;7.53;96.98;102619.84;4989612;28;20465;-71
2022/09/21 07:18:16;;;;;;;17.75;9.45;;;;;;;7.62;97.46;102616.84;5004231;28;20030;-71
2022/09/21 07:20:42;;;;;;;19.30;9.52;;;;;;;7.75;98.67;102613.75;5004590;28;20101;-71
2022/09/21 07:23:15;;;;;;;19.15;10.40;;;;;;;7.86;98.75;102615.16;5004439;28;20038;-71
2022/09/21 07:25:42;;;;;;;21.55;9.57;;;;;;;7.93;98.80;102615.88;4988125;28;20053;-71
2022/09/21 07:28:08;;;;;;;21.60;10.23;;;;;;;8.02;98.82;102618.28;5006944;28;20061;-71
2022/09/21 07:30:36;;;;;;;21.25;9.75;;;;;;;8.12;99.49;102617.00;4997641;28;20066;-71
2022/09/21 07:33:02;;;;;;;22.85;10.93;;;;;;;8.19;98.99;102612.25;4989408;28;20038;-71
2022/09/21 07:35:27;;;;;;;23.08;11.23;;;;;;;8.27;99.03;102614.72;5007226;28;20573;-71
2022/09/21 07:37:55;;;;;;;20.13;11.85;;;;;;;8.40;100.00;102603.44;4993583;28;20046;-71
2022/09/21 07:40:20;;;;;;;24.33;13.23;;;;;;;8.50;100.00;102611.25;4993611;28;20043;-71
2022/09/21 07:42:46;;;;;;;25.92;14.32;;;;;;;8.65;100.00;102602.53;4992037;28;20346;-71
2022/09/21 07:45:11;;;;;;;26.55;14.95;;;;;;;8.74;100.00;102602.22;4992845;28;20178;-71
2022/09/21 07:47:36;;;;;;;22.10;14.15;;;;;;;8.99;100.00;102601.28;4992820;28;20030;-71
2022/09/21 07:50:02;;;;;;;22.17;14.35;;;;;;;9.20;100.00;102601.38;4993078;28;20129;-71
2022/09/21 07:52:27;;;;;;;24.23;13.48;;;;;;;9.35;100.00;102610.75;4992458;28;20042;-72
2022/09/21 07:54:53;;;;;;;25.15;12.10;;;;;;;9.47;99.80;102601.25;5008295;28;20049;-72
2022/09/21 08:00:03;;;;;;;18.45;9.93;;;;;;;9.68;99.07;102602.19;4996463;28;20489;-71
2022/09/21 08:02:37;;;;;;;22.27;9.52;;;;;;;9.81;97.84;102605.31;4992676;28;20042;-72
2022/09/21 08:05:02;;;;;;;16.50;9.65;;;;;;;9.89;97.70;102604.06;4992668;28;20053;-71
2022/09/21 08:07:28;;;;;;;13.60;8.95;;;;;;;10.02;97.08;102598.09;4992631;28;20642;-72
2022/09/21 08:09:53;;;;;;;13.52;7.78;;;;;;;10.14;96.65;102603.00;4992881;28;20038;-71
2022/09/21 08:12:19;;;;;;;15.75;7.93;;;;;;;10.19;96.29;102596.44;4992979;28;20359;-72
2022/09/21 08:14:46;;;;;;;12.15;6.90;;;;;;;10.33;96.18;102603.16;5007354;28;20034;-72
2022/09/21 08:17:12;;;;;;;10.27;6.55;;;;;;;10.50;95.10;102603.31;4992094;28;20078;-72
2022/09/21 08:19:38;;;;;;;12.25;6.25;;;;;;;10.61;93.62;102600.97;4992646;28;20041;-72
2022/09/21 08:22:03;;;;;;;11.07;5.97;;;;;;;10.69;93.80;102606.09;4992509;28;20030;-71
2022/09/21 08:24:30;;;;;;;10.00;6.07;;;;;;;10.76;92.94;102612.13;5007265;28;20122;-72
2022/09/21 08:26:55;;;;;;;9.60;5.70;;;;;;;10.82;92.50;102615.50;5000189;28;20041;-71
2022/09/21 08:29:21;;;;;;;9.40;5.45;;;;;;;10.86;92.06;102606.19;5010294;28;20025;-72
2022/09/21 08:31:46;;;;;;;7.90;4.43;;;;;;;10.89;91.45;102616.06;5008691;28;20069;-72
2022/09/21 08:34:11;;;;;;;7.55;4.72;;;;;;;10.92;91.19;102614.09;4993118;28;20524;-72
2022/09/21 08:36:37;;;;;;;7.45;4.90;;;;;;;10.97;91.33;102612.06;4999018;28;20073;-72
2022/09/21 08:39:05;;;;;;;11.73;4.57;;;;;;;11.09;88.55;102612.44;4974670;28;20038;-72
2022/09/21 08:41:51;;;;;;;7.35;5.35;;;;;;;11.15;90.00;102613.06;4991956;28;20386;-72
2022/09/21 08:44:37;;;;;;;11.35;4.85;;;;;;;11.21;89.18;102614.59;4992128;28;20038;-72
2022/09/21 08:47:18;;;;;;;8.93;3.15;;;;;;;11.29;86.77;102617.84;4990509;28;20409;-72
2022/09/21 08:49:54;;;;;;;5.93;2.60;;;;;;;11.36;86.79;102613.00;4992008;28;20173;-72
2022/09/21 08:52:23;;;;;;;6.75;3.28;;;;;;;11.43;86.38;102617.19;5007056;28;20105;-72
2022/09/21 08:55:16;;;;;;;7.45;3.03;;;;;;;11.50;85.97;102622.28;4992126;28;20486;-72
2022/09/21 08:57:41;;;;;;;6.68;2.92;;;;;;;11.61;87.40;102616.31;5004560;28;20053;-72
2022/09/21 09:00:14;;;;;;;6.75;2.70;;;;;;;11.69;85.95;102619.53;5009489;28;20038;-72
2022/09/21 09:03:04;;;;;;;5.25;3.50;;;;;;;11.78;86.82;102617.31;4990657;28;20122;-72
2022/09/21 09:05:48;;;;;;;5.53;2.90;;;;;;;11.80;86.36;102618.13;5006287;28;20532;-72
2022/09/21 09:08:35;;;;;;;5.45;3.22;;;;;;;11.86;84.56;102617.88;5006813;28;20046;-72
2022/09/21 09:11:19;;;;;;;7.78;3.00;;;;;;;11.98;83.68;102622.69;4992352;28;20104;-72
2022/09/21 09:14:21;;;;;;;9.07;2.92;;;;;;;12.10;81.69;102622.09;4991632;28;20078;-72
2022/09/21 09:17:24;;;;;;;9.10;2.20;;;;;;;12.24;82.56;102619.56;4991616;28;20113;-72
2022/09/21 09:19:57;;;;;;;4.18;1.95;;;;;;;12.33;80.20;102626.38;4991265;28;20050;-72
2022/09/21 09:22:33;;;;;;;5.43;2.10;;;;;;;12.42;80.09;102636.84;4991685;28;20185;-72
2022/09/21 09:25:04;;;;;;;12.88;2.58;;;;;;;12.59;82.64;102625.06;4991567;28;20136;-72
2022/09/21 09:27:35;;;;;;;5.17;2.30;;;;;;;12.76;82.63;102625.00;4998976;28;20524;-72
2022/09/21 09:30:21;;;;;;;4.18;2.03;;;;;;;12.90;79.53;102626.13;4991479;28;20430;-72
2022/09/21 09:33:12;;;;;;;5.97;1.48;;;;;;;13.06;76.01;102623.47;4991097;28;20486;-72
2022/09/21 09:35:47;;;;;;;12.13;3.35;;;;;;;13.19;75.67;102633.63;5006004;28;20081;-72
2022/09/21 09:38:37;;;;;;;5.00;2.13;;;;;;;13.28;78.41;102626.81;5006252;28;20141;-72
2022/09/21 09:41:21;;;;;;;8.25;2.70;;;;;;;13.24;74.05;102628.84;4991090;28;20044;-72
2022/09/21 09:43:55;;;;;;;9.50;2.17;;;;;;;13.27;73.25;102625.94;5005870;28;20520;-72
2022/09/21 09:46:30;;;;;;;7.32;2.47;;;;;;;13.22;75.40;102633.50;4991343;28;20442;-72
2022/09/21 09:49:34;;;;;;;5.28;2.05;;;;;;;13.19;77.68;102619.06;4990710;28;20045;-72
2022/09/21 09:52:00;;;;;;;3.80;1.95;;;;;;;13.23;76.09;102628.91;4989559;28;20065;-72
2022/09/21 09:54:28;;;;;;;7.00;2.28;;;;;;;13.37;75.12;102628.16;5005770;28;20501;-72
2022/09/21 09:56:54;;;;;;;8.00;1.70;;;;;;;13.57;73.16;102621.56;5006083;28;20031;-72
2022/09/21 09:59:34;;;;;;;3.95;1.58;;;;;;;13.67;71.68;102631.03;5001141;28;20405;-72
2022/09/21 10:02:01;;;;;;;4.93;2.00;;;;;;;13.78;72.75;102628.53;4994503;28;20510;-72
2022/09/21 10:04:27;;;;;;;6.63;1.92;;;;;;;13.84;72.11;102619.09;5000557;28;20417;-72
2022/09/21 10:06:52;;;;;;;8.10;2.35;;;;;;;13.89;70.83;102630.66;4999664;28;20057;-72
2022/09/21 10:09:25;;;;;;;7.30;1.70;;;;;;;13.94;70.74;102629.44;5005415;28;20084;-72
2022/09/21 10:11:51;;;;;;;;;;;;;;;14.03;75.42;102628.00;4991302;28;20034;-72
2022/09/21 10:14:22;;;;;;;2.92;1.60;;;;;;;14.01;70.85;102628.09;4989467;28;19917;-72
2022/09/21 10:16:53;;;;;;;7.15;1.73;;;;;;;14.02;69.03;102624.38;4990614;28;20070;-72
2022/09/21 10:19:24;;;;;;;3.60;1.90;;;;;;;14.07;71.33;102624.09;4990318;28;20055;-72
2022/09/21 10:22:01;;;;;;;7.53;1.88;;;;;;;14.15;73.63;102624.56;5005674;28;20034;-72
2022/09/21 10:24:39;;;;;;;3.47;1.40;;;;;;;14.20;71.98;102625.16;4988777;28;20472;-72
2022/09/21 10:27:13;;;;;;;3.13;1.98;;;;;;;14.23;70.47;102621.38;4999295;28;20121;-72
2022/09/21 10:29:48;;;;;;;4.63;2.28;;;;;;;14.26;70.88;102623.91;5015696;28;20113;-72
2022/09/21 10:32:15;;;;;;;3.50;1.85;;;;;;;14.30;68.76;102623.63;4989833;28;20049;-72
2022/09/21 10:34:58;;;;;;;5.28;1.70;;;;;;;14.35;67.99;102619.72;4989935;28;20173;-72
2022/09/21 10:37:27;;;;;;;4.25;1.48;;;;;;;14.43;69.84;102617.44;5006745;28;20438;-71
2022/09/21 10:39:53;;;;;;;5.82;2.45;;;;;;;14.56;71.78;102613.00;5009929;28;20505;-72
2022/09/21 10:42:20;;;;;;;4.93;1.70;;;;;;;14.65;73.64;102611.56;5025096;28;20184;-72
2022/09/21 10:44:49;;;;;;;5.40;1.77;;;;;;;14.75;70.05;102615.50;5019494;28;20216;-72
2022/09/21 10:47:19;;;;;;;6.38;2.10;;;;;;;15.02;68.58;102612.91;4989555;28;20140;-72
2022/09/21 10:49:57;;;;;;;6.47;1.48;;;;;;;15.36;68.00;102606.13;4989638;28;20034;-72
2022/09/21 10:52:38;;;;;;;2.92;1.20;;;;;;;15.58;67.54;102602.88;4989958;28;20054;-72
2022/09/21 10:55:05;;;;;;;5.20;1.52;;;;;;;15.73;67.83;102598.28;4989657;28;20598;-72
2022/09/21 10:57:32;;;;;;;5.05;1.40;;;;;;;15.76;62.82;102598.06;5008281;28;20033;-72
2022/09/21 10:59:58;;;;;;;4.88;1.23;;;;;;;15.92;65.55;102604.31;4998686;28;20512;-72
2022/09/21 11:02:30;;;;;;;4.68;1.38;;;;;;;16.33;63.50;102601.50;5004302;28;20046;-72
2022/09/21 11:05:00;;;;;;;3.33;1.27;;;;;;;16.70;64.10;102600.81;4989567;28;20043;-72
2022/09/21 11:07:45;;;;;;;7.90;1.63;;;;;;;16.70;61.74;102604.44;4989364;28;20057;-72
2022/09/21 11:10:29;;;;;;;5.22;1.50;;;;;;;16.51;59.48;102593.84;4989374;28;20030;-72
2022/09/21 11:13:25;;;;;;;7.15;1.20;;;;;;;16.63;60.20;102600.34;5004368;28;20049;-72
2022/09/21 11:15:50;;;;;;;5.82;1.20;;;;;;;16.89;58.18;102592.19;4989653;28;20358;-72
2022/09/21 11:18:20;;;;;;;7.38;1.13;;;;;;;17.44;58.99;102597.31;5004169;28;20117;-72
2022/09/21 11:20:55;;;;;;;3.08;1.63;;;;;;;17.78;56.48;102594.81;4989345;28;20038;-72
2022/09/21 11:23:34;;;;;;;5.97;1.60;;;;;;;18.20;59.14;102593.44;4989958;28;20057;-72
2022/09/21 11:26:16;;;;;;;5.72;1.10;;;;;;;18.43;56.30;102594.41;4989496;28;20559;-72
2022/09/21 11:28:49;;;;;;;6.28;1.60;;;;;;;18.57;53.19;102596.09;5007057;28;20088;-73
2022/09/21 11:31:33;;;;;;;3.65;1.38;;;;;;;18.64;56.63;102593.72;4999864;28;20038;-73
2022/09/21 11:34:24;;;;;;;3.92;1.50;;;;;;;18.84;56.38;102590.31;4989023;28;20038;-73
2022/09/21 11:37:14;;;;;;;2.83;1.60;;;;;;;18.37;51.73;102594.88;4989687;28;20096;-73
2022/09/21 11:40:18;;;;;;;9.77;1.70;;;;;;;18.14;56.12;102591.16;4989309;28;20038;-72
2022/09/21 11:42:51;;;;;;;4.63;1.40;;;;;;;17.98;53.22;102587.81;4989259;28;20034;-72
2022/09/21 11:45:41;;;;;;;3.10;1.20;;;;;;;17.77;54.73;102591.19;4989026;28;20034;-71
2022/09/21 11:48:19;;;;;;;2.28;1.38;;;;;;;17.61;57.87;102579.53;5004086;28;20042;-73
2022/09/21 11:51:19;;;;;;;5.68;1.73;;;;;;;17.66;60.98;102571.81;4988874;28;20049;-73
2022/09/21 11:54:02;;;;;;;8.15;1.50;;;;;;;17.81;60.73;102569.78;4987868;28;20051;-73
2022/09/21 11:56:42;;;;;;;4.22;1.35;;;;;;;17.97;58.69;102569.53;5007331;28;20041;-73